createdAt,value
2018-11-20T00:01:19.900Z,22.60
2018-11-20T00:04:12.164Z,36.60
2018-11-20T00:07:04.121Z,25.93
2018-11-20T00:09:56.429Z,31.57
2018-11-20T00:12:44.289Z,34.07
2018-11-20T00:15:43.067Z,34.67
2018-11-20T00:18:47.366Z,38.43
2018-11-20T00:21:39.616Z,39.50
2018-11-20T00:24:27.674Z,31.60
2018-11-20T00:27:13.241Z,36.40
2018-11-20T00:30:04.188Z,37.27
2018-11-20T00:33:05.500Z,38.90
2018-11-20T00:36:00.771Z,32.70
2018-11-20T00:38:55.688Z,31.83
2018-11-20T00:41:54.018Z,46.37
2018-11-20T00:44:36.399Z,33.33
2018-11-20T00:47:40.745Z,44.17
2018-11-20T00:50:28.859Z,37.80
2018-11-20T00:53:16.878Z,29.10
2018-11-20T00:56:29.512Z,34.70
2018-11-20T00:59:24.443Z,37.10
2018-11-20T01:02:13.724Z,41.87
2018-11-20T01:05:01.563Z,36.80
2018-11-20T01:07:49.858Z,37.17
2018-11-20T01:10:39.026Z,36.07
2018-11-20T01:13:31.289Z,42.77
2018-11-20T01:16:20.521Z,43.23
2018-11-20T01:19:18.445Z,37.07
2018-11-20T01:21:59.561Z,43.17
2018-11-20T01:24:55.036Z,30.03
2018-11-20T01:27:55.899Z,33.63
2018-11-20T01:30:40.908Z,43.23
2018-11-20T01:33:30.188Z,40.87
2018-11-20T01:36:22.921Z,39.00
2018-11-20T01:39:10.566Z,47.63
2018-11-20T01:42:00.019Z,42.43
2018-11-20T01:45:00.639Z,45.63
2018-11-20T01:47:48.426Z,43.30
2018-11-20T01:50:36.054Z,49.37
2018-11-20T01:53:31.491Z,38.23
2018-11-20T01:56:35.674Z,49.27
2018-11-20T01:59:27.906Z,37.30
2018-11-20T02:02:16.116Z,36.77
2018-11-20T02:05:23.622Z,39.37
2018-11-20T02:08:11.153Z,31.17
2018-11-20T02:11:06.470Z,47.90
2018-11-20T02:14:02.771Z,34.50
2018-11-20T02:16:51.679Z,34.23
2018-11-20T02:19:46.955Z,33.00
2018-11-20T02:22:25.073Z,35.63
2018-11-20T02:25:14.251Z,42.63
2018-11-20T02:28:00.026Z,37.17
2018-11-20T02:30:58.142Z,42.33
2018-11-20T02:33:53.468Z,38.80
2018-11-20T02:36:44.178Z,38.17
2018-11-20T02:39:23.648Z,31.43
2018-11-20T02:42:18.659Z,32.03
2018-11-20T02:45:10.991Z,28.77
2018-11-20T02:47:58.724Z,30.20
2018-11-20T02:50:48.114Z,35.13
2018-11-20T02:53:43.125Z,35.63
2018-11-20T02:56:44.371Z,35.43
2018-11-20T02:59:36.692Z,34.13
2018-11-20T03:02:25.548Z,33.47
2018-11-20T03:05:20.726Z,29.57
2018-11-20T03:08:15.654Z,35.87
2018-11-20T03:11:07.764Z,30.67
2018-11-20T03:13:55.841Z,37.97
2018-11-20T03:17:00.297Z,31.83
2018-11-20T03:19:58.655Z,42.40
2018-11-20T03:22:46.742Z,39.07
2018-11-20T03:26:14.007Z,40.77
2018-11-20T03:29:27.448Z,40.10
2018-11-20T03:32:25.953Z,35.10
2018-11-20T03:35:24.300Z,31.77
2018-11-20T03:38:12.489Z,44.97
2018-11-20T03:40:58.160Z,35.03
2018-11-20T03:43:59.728Z,39.90
2018-11-20T03:46:48.917Z,40.60
2018-11-20T03:49:36.738Z,31.30
2018-11-20T03:52:31.758Z,42.17
2018-11-20T03:55:24.073Z,32.70
2018-11-20T03:58:19.251Z,27.90
2018-11-20T04:01:07.203Z,39.20
2018-11-20T04:03:46.623Z,33.83
2018-11-20T04:06:38.782Z,38.57
2018-11-20T04:09:26.805Z,28.73
2018-11-20T04:12:21.762Z,44.63
2018-11-20T04:15:10.926Z,30.97
2018-11-20T04:18:12.449Z,41.03
2018-11-20T04:21:07.768Z,31.30
2018-11-20T04:23:51.489Z,34.90
2018-11-20T04:26:44.516Z,38.10
2018-11-20T04:29:36.480Z,33.03
2018-11-20T04:32:40.949Z,41.03
2018-11-20T04:35:43.558Z,40.30
2018-11-20T04:38:24.294Z,35.03
2018-11-20T04:41:12.533Z,35.30
2018-11-20T04:44:13.582Z,34.10
2018-11-20T04:47:00.454Z,32.73
2018-11-20T04:49:53.650Z,44.30
2018-11-20T04:52:42.875Z,33.00
2018-11-20T04:55:26.687Z,37.07
2018-11-20T04:58:14.662Z,40.30
2018-11-20T05:01:15.852Z,29.23
2018-11-20T05:04:03.647Z,45.47
2018-11-20T05:06:52.334Z,41.90
2018-11-20T05:09:41.605Z,38.73
2018-11-20T05:12:36.822Z,40.07
2018-11-20T05:15:29.115Z,43.07
2018-11-20T05:18:16.835Z,45.73
2018-11-20T05:21:04.566Z,31.53
2018-11-20T05:23:56.429Z,34.13
2018-11-20T05:26:35.205Z,35.50
2018-11-20T05:29:33.092Z,35.23
2018-11-20T05:32:25.226Z,35.40
2018-11-20T05:35:04.238Z,33.53
2018-11-20T05:37:59.363Z,47.37
2018-11-20T05:40:39.688Z,29.17
2018-11-20T05:43:27.550Z,38.37
2018-11-20T05:46:22.621Z,38.10
2018-11-20T05:49:17.660Z,37.10
2018-11-20T05:52:06.958Z,37.23
2018-11-20T05:55:03.372Z,27.97
2018-11-20T05:57:51.361Z,41.40
2018-11-20T06:00:49.082Z,41.53
2018-11-20T06:03:35.635Z,36.80
2018-11-20T06:06:16.954Z,34.20
2018-11-20T06:09:15.401Z,42.13
2018-11-20T06:12:00.515Z,39.73
2018-11-20T06:14:48.364Z,45.80
2018-11-20T06:17:49.756Z,36.30
2018-11-20T06:20:30.644Z,39.30
2018-11-20T06:23:14.015Z,38.47
2018-11-20T06:26:02.596Z,41.63
2018-11-20T06:28:53.344Z,51.00
2018-11-20T06:31:40.939Z,39.90
2018-11-20T06:34:42.181Z,33.70
2018-11-20T06:40:38.149Z,47.17
2018-11-20T06:43:32.752Z,39.80
2018-11-20T06:46:12.960Z,39.27
2018-11-20T06:49:13.725Z,39.53
2018-11-20T06:52:01.107Z,48.80
2018-11-20T06:54:48.050Z,41.23
2018-11-20T06:57:35.306Z,39.73
2018-11-20T07:00:39.165Z,32.27
2018-11-20T07:03:26.458Z,50.93
2018-11-20T07:06:13.277Z,45.10
2018-11-20T07:09:04.707Z,41.30
2018-11-20T07:11:45.233Z,41.60
2018-11-20T07:14:35.037Z,45.47
2018-11-20T07:17:41.905Z,45.33
2018-11-20T07:20:30.498Z,47.70
2018-11-20T07:23:22.476Z,47.20
2018-11-20T07:26:10.033Z,44.43
2018-11-20T07:28:57.088Z,45.37
2018-11-20T07:31:58.520Z,47.67
2018-11-20T07:34:59.247Z,50.47
2018-11-20T07:37:46.229Z,53.80
2018-11-20T07:40:42.938Z,38.67
2018-11-20T07:43:25.575Z,46.90
2018-11-20T07:46:19.978Z,32.63
2018-11-20T07:49:07.315Z,48.40
2018-11-20T07:52:04.877Z,52.33
2018-11-20T07:54:53.388Z,45.77
2018-11-20T07:57:53.825Z,44.97
2018-11-20T08:00:51.246Z,34.73
2018-11-20T08:03:38.451Z,37.13
2018-11-20T08:06:26.945Z,34.87
2018-11-20T08:09:27.433Z,32.07
2018-11-20T08:12:09.278Z,56.50
2018-11-20T08:14:57.919Z,40.53
2018-11-20T08:17:40.259Z,34.87
2018-11-20T08:20:32.913Z,40.97
2018-11-20T08:23:33.899Z,44.27
2018-11-20T08:26:22.510Z,33.90
2018-11-20T08:29:12.453Z,47.93
2018-11-20T08:31:59.391Z,42.37
2018-11-20T08:34:46.535Z,40.43
2018-11-20T08:37:43.907Z,38.83
2018-11-20T08:40:35.046Z,39.50
2018-11-20T08:43:35.660Z,31.70
2018-11-20T08:46:24.395Z,50.03
2018-11-20T08:49:22.029Z,46.23
2018-11-20T08:52:10.556Z,37.33
2018-11-20T08:54:59.142Z,47.27
2018-11-20T08:57:49.783Z,45.67
2018-11-20T09:00:56.483Z,42.60
2018-11-20T09:04:00.245Z,44.90
2018-11-20T09:06:47.203Z,45.83
2018-11-20T09:09:50.725Z,46.07
2018-11-20T09:12:39.457Z,45.70
2018-11-20T09:15:25.701Z,47.80
2018-11-20T09:18:15.912Z,30.73
2018-11-20T09:21:06.869Z,28.67
2018-11-20T09:23:53.878Z,47.60
2018-11-20T09:26:54.732Z,50.30
2018-11-20T09:29:41.602Z,45.23
2018-11-20T09:32:16.692Z,47.57
2018-11-20T09:35:04.322Z,41.37
2018-11-20T09:38:05.082Z,46.63
2018-11-20T09:40:59.039Z,47.30
2018-11-20T09:44:18.132Z,35.47
2018-11-20T09:47:10.178Z,51.10
2018-11-20T09:49:57.188Z,52.20
2018-11-20T09:53:06.543Z,44.10
2018-11-20T09:55:54.055Z,38.43
2018-11-20T09:58:41.178Z,46.37
2018-11-20T10:01:32.389Z,47.97
2018-11-20T10:04:23.144Z,48.00
2018-11-20T10:07:11.397Z,47.63
2018-11-20T10:09:55.655Z,42.70
2018-11-20T10:12:47.041Z,44.40
2018-11-20T10:15:27.146Z,42.43
2018-11-20T10:18:30.895Z,44.00
2018-11-20T10:21:27.040Z,65.90
2018-11-20T10:24:28.716Z,49.80
2018-11-20T10:27:26.113Z,48.17
2018-11-20T10:30:23.666Z,43.73
2018-11-20T10:33:11.037Z,46.53
2018-11-20T10:36:02.307Z,52.60
2018-11-20T10:38:56.697Z,44.07
2018-11-20T10:41:43.918Z,38.10
2018-11-20T10:44:31.385Z,47.37
2018-11-20T10:47:25.843Z,52.03
2018-11-20T10:50:26.471Z,48.97
2018-11-20T10:53:12.145Z,45.30
2018-11-20T10:55:59.338Z,36.23
2018-11-20T10:58:47.931Z,40.20
2018-11-20T11:01:35.089Z,38.17
2018-11-20T11:04:23.690Z,37.97
2018-11-20T11:07:12.157Z,48.80
2018-11-20T11:09:53.080Z,40.03
2018-11-20T11:12:47.557Z,43.17
2018-11-20T11:15:34.742Z,38.03
2018-11-20T11:18:26.103Z,43.20
2018-11-20T11:21:23.664Z,39.40
2018-11-20T11:24:16.856Z,49.23
2018-11-20T11:27:15.459Z,47.27
2018-11-20T11:30:00.841Z,45.83
2018-11-20T11:32:42.101Z,46.63
2018-11-20T11:35:42.776Z,51.93
2018-11-20T11:38:30.575Z,44.37
2018-11-20T11:41:17.512Z,43.43
2018-11-20T11:44:22.469Z,40.13
2018-11-20T11:47:09.245Z,37.03
2018-11-20T11:50:16.470Z,33.10
2018-11-20T11:53:19.916Z,47.80
2018-11-20T11:56:06.963Z,31.73
2018-11-20T11:58:54.140Z,34.87
2018-11-20T12:04:26.031Z,44.77
2018-11-20T12:07:11.122Z,41.60
2018-11-20T12:10:02.627Z,41.57
2018-11-20T12:12:49.965Z,37.60
2018-11-20T12:15:37.058Z,35.00
2018-11-20T12:18:35.156Z,52.03
2018-11-20T12:21:28.642Z,38.17
2018-11-20T12:24:23.327Z,33.00
2018-11-20T12:27:22.347Z,42.30
2018-11-20T12:30:08.176Z,32.13
2018-11-20T12:32:55.128Z,35.83
2018-11-20T12:35:54.621Z,50.50
2018-11-20T12:38:50.638Z,48.40
2018-11-20T12:41:44.417Z,43.47
2018-11-20T12:44:30.498Z,48.17
2018-11-20T12:47:17.697Z,45.93
2018-11-20T12:50:10.663Z,41.13
2018-11-20T12:53:09.815Z,52.97
2018-11-20T12:55:57.151Z,39.17
2018-11-20T12:58:45.777Z,57.00
2018-11-20T13:01:43.454Z,46.53
2018-11-20T13:04:32.122Z,50.87
2018-11-20T13:07:19.330Z,39.17
2018-11-20T13:10:06.937Z,43.63
2018-11-20T13:12:54.121Z,51.87
2018-11-20T13:15:41.779Z,39.10
2018-11-20T13:18:36.447Z,38.90
2018-11-20T13:21:38.665Z,51.37
2018-11-20T13:24:33.085Z,40.40
2018-11-20T13:27:20.669Z,31.60
2018-11-20T13:30:07.964Z,38.37
2018-11-20T13:32:52.022Z,32.73
2018-11-20T13:35:43.557Z,32.60
2018-11-20T13:38:33.305Z,36.37
2018-11-20T13:42:06.957Z,33.90
2018-11-20T13:44:55.322Z,35.97
2018-11-20T13:47:44.953Z,29.37
2018-11-20T13:50:51.916Z,30.17
2018-11-20T13:53:48.976Z,26.20
2018-11-20T13:56:37.474Z,36.27
2018-11-20T13:59:24.719Z,30.20
2018-11-20T14:02:18.939Z,30.50
2018-11-20T14:05:22.715Z,45.93
2018-11-20T14:08:11.711Z,29.40
2018-11-20T14:10:55.943Z,34.80
2018-11-20T14:13:53.515Z,33.50
2018-11-20T14:16:47.841Z,18.43
2018-11-20T14:19:37.846Z,28.77
2018-11-20T14:22:32.296Z,35.43
2018-11-20T14:25:20.542Z,28.93
2018-11-20T14:28:18.387Z,30.80
2018-11-20T14:31:22.435Z,25.97
2018-11-20T14:34:03.938Z,24.93
2018-11-20T14:36:51.039Z,27.83
2018-11-20T14:39:39.520Z,25.57
2018-11-20T14:42:39.917Z,18.00
2018-11-20T14:45:28.347Z,24.63
2018-11-20T14:48:17.264Z,25.07
2018-11-20T14:51:05.765Z,20.87
2018-11-20T14:54:04.307Z,30.87
2018-11-20T14:56:40.818Z,26.30
2018-11-20T14:59:32.322Z,33.60
2018-11-20T15:02:23.908Z,28.30
2018-11-20T15:05:14.832Z,23.20
2018-11-20T15:08:04.800Z,34.90
2018-11-20T15:11:02.342Z,30.73
2018-11-20T15:13:59.995Z,36.57
2018-11-20T15:16:54.209Z,29.43
2018-11-20T15:19:43.638Z,31.90
2018-11-20T15:22:32.020Z,29.73
2018-11-20T15:25:20.721Z,26.37
2018-11-20T15:28:05.802Z,29.10
2018-11-20T15:30:57.110Z,23.27
2018-11-20T15:33:37.184Z,24.33
2018-11-20T15:36:24.046Z,31.03
2018-11-20T15:39:30.901Z,36.80
2018-11-20T15:42:28.111Z,35.07
2018-11-20T15:45:15.677Z,36.57
2018-11-20T15:48:11.018Z,35.30
2018-11-20T15:51:02.771Z,36.03
2018-11-20T15:53:49.587Z,24.33
2018-11-20T15:56:36.914Z,27.97
2018-11-20T15:59:34.145Z,31.63
2018-11-20T16:02:28.491Z,35.50
2018-11-20T16:05:16.852Z,35.23
2018-11-20T16:07:57.380Z,21.87
2018-11-20T16:10:45.431Z,32.13
2018-11-20T16:13:36.539Z,32.53
2018-11-20T16:16:33.741Z,28.80
2018-11-20T16:19:18.259Z,38.97
2018-11-20T16:22:05.491Z,43.60
2018-11-20T16:24:52.687Z,35.47
2018-11-20T16:27:41.986Z,37.77
2018-11-20T16:30:29.928Z,50.40
2018-11-20T16:33:24.306Z,37.50
2018-11-20T16:36:16.530Z,30.00
2018-11-20T16:39:06.670Z,44.30
2018-11-20T16:41:55.202Z,33.93
2018-11-20T16:44:41.872Z,35.80
2018-11-20T16:47:39.642Z,41.77
2018-11-20T16:50:36.951Z,36.77
2018-11-20T16:53:34.157Z,37.93
2018-11-20T16:56:17.255Z,39.87
2018-11-20T16:59:08.589Z,42.03
2018-11-20T17:01:55.662Z,43.80
2018-11-20T17:04:59.455Z,45.13
2018-11-20T17:07:46.770Z,44.97
2018-11-20T17:10:42.565Z,37.40
2018-11-20T17:13:34.846Z,34.00
2018-11-20T17:16:42.293Z,39.50
2018-11-20T17:19:30.925Z,42.90
2018-11-20T17:22:19.463Z,38.57
2018-11-20T17:25:06.594Z,47.83
2018-11-20T17:28:10.439Z,51.47
2018-11-20T17:30:58.885Z,43.60
2018-11-20T17:33:55.287Z,42.63
2018-11-20T17:36:47.524Z,43.90
2018-11-20T17:39:34.664Z,35.73
2018-11-20T17:42:21.750Z,44.77
2018-11-20T17:45:05.104Z,43.93
2018-11-20T17:47:52.376Z,59.63
2018-11-20T17:50:40.008Z,61.17
2018-11-20T17:53:31.540Z,51.67
2018-11-20T17:56:18.701Z,54.37
2018-11-20T17:59:01.829Z,41.70
2018-11-20T18:02:02.317Z,48.47
2018-11-20T18:04:49.330Z,53.93
2018-11-20T18:07:36.578Z,56.13
2018-11-20T18:10:24.490Z,56.03
2018-11-20T18:13:28.130Z,43.03
2018-11-20T18:16:22.482Z,46.67
2018-11-20T18:19:09.624Z,43.60
2018-11-20T18:22:00.879Z,49.80
2018-11-20T18:24:50.327Z,54.00
2018-11-20T18:27:35.103Z,58.97
2018-11-20T18:30:25.246Z,50.03
2018-11-20T18:33:12.516Z,44.67
2018-11-20T18:35:59.910Z,50.10
2018-11-20T18:38:47.402Z,53.37
2018-11-20T18:41:34.464Z,61.13
2018-11-20T18:44:14.837Z,52.03
2018-11-20T18:47:06.442Z,65.53
2018-11-20T18:49:46.100Z,54.67
2018-11-20T18:52:36.771Z,63.37
2018-11-20T18:55:24.735Z,57.20
2018-11-20T18:58:15.944Z,45.50
2018-11-20T19:01:10.030Z,56.90
2018-11-20T19:03:50.536Z,66.03
2018-11-20T19:06:47.968Z,54.00
2018-11-20T19:09:36.389Z,72.90
2018-11-20T19:12:25.409Z,55.07
2018-11-20T19:15:29.095Z,56.67
2018-11-20T19:18:08.055Z,63.80
2018-11-20T19:21:11.698Z,64.87
2018-11-20T19:24:12.446Z,67.87
2018-11-20T19:27:19.006Z,59.60
2018-11-20T19:29:58.638Z,70.33
2018-11-20T19:32:50.246Z,53.67
2018-11-20T19:35:37.249Z,58.90
2018-11-20T19:38:30.695Z,57.20
2018-11-20T19:41:19.103Z,63.83
2018-11-20T19:44:07.627Z,61.17
2018-11-20T19:47:14.133Z,69.00
2018-11-20T19:50:02.866Z,70.77
2018-11-20T19:52:51.247Z,52.47
2018-11-20T19:55:48.592Z,71.93
2018-11-20T19:58:36.952Z,64.23
2018-11-20T20:01:24.158Z,56.43
2018-11-20T20:04:31.104Z,53.27
2018-11-20T20:07:19.669Z,69.83
2018-11-20T20:10:02.166Z,61.43
2018-11-20T20:12:49.213Z,64.63
2018-11-20T20:15:31.078Z,65.80
2018-11-20T20:18:31.627Z,67.27
2018-11-20T20:21:17.141Z,56.40
2018-11-20T20:24:05.611Z,72.07
2018-11-20T20:26:54.019Z,62.00
2018-11-20T20:29:45.250Z,65.63
2018-11-20T20:32:32.406Z,65.30
2018-11-20T20:35:19.864Z,65.43
2018-11-20T20:38:14.967Z,53.87
2018-11-20T20:41:06.384Z,62.33
2018-11-20T20:44:13.098Z,66.20
2018-11-20T20:47:13.613Z,75.23
2018-11-20T20:50:00.812Z,65.37
2018-11-20T20:52:49.485Z,67.60
2018-11-20T20:55:36.487Z,66.07
2018-11-20T20:58:34.170Z,63.50
2018-11-20T21:01:22.635Z,67.50
2018-11-20T21:04:04.378Z,54.23
2018-11-20T21:06:51.481Z,56.60
2018-11-20T21:09:55.211Z,59.50
2018-11-20T21:12:42.392Z,71.10
2018-11-20T21:15:33.750Z,49.87
2018-11-20T21:18:16.789Z,51.73
2018-11-20T21:21:05.383Z,64.67
2018-11-20T21:23:52.655Z,65.77
2018-11-20T21:26:40.075Z,61.97
2018-11-20T21:29:34.324Z,62.00
2018-11-20T21:32:22.754Z,58.40
2018-11-20T21:35:09.952Z,62.17
2018-11-20T21:37:57.448Z,49.43
2018-11-20T21:40:49.661Z,60.17
2018-11-20T21:43:33.016Z,63.40
2018-11-20T21:46:24.258Z,68.77
2018-11-20T21:49:18.522Z,71.47
2018-11-20T21:52:06.952Z,64.67
2018-11-20T21:54:52.337Z,49.60
2018-11-20T21:57:43.398Z,68.00
2018-11-20T22:00:44.756Z,60.50
2018-11-20T22:03:35.775Z,52.57
2018-11-20T22:06:27.455Z,40.13
2018-11-20T22:09:15.838Z,52.83
2018-11-20T22:12:07.129Z,62.80
2018-11-20T22:14:48.774Z,58.30
2018-11-20T22:17:40.212Z,64.67
2018-11-20T22:20:27.049Z,62.27
2018-11-20T22:23:15.539Z,63.83
2018-11-20T22:26:13.161Z,60.60
2018-11-20T22:29:16.875Z,62.20
2018-11-20T22:32:08.300Z,62.53
2018-11-20T22:35:02.776Z,66.60
2018-11-20T22:37:49.876Z,65.80
2018-11-20T22:40:36.893Z,61.00
2018-11-20T22:43:23.919Z,51.37
2018-11-20T22:46:30.695Z,68.43
2018-11-20T22:49:21.015Z,72.07
2018-11-20T22:52:03.678Z,66.07
2018-11-20T22:54:41.368Z,62.83
2018-11-20T22:57:21.744Z,62.03
2018-11-20T23:00:11.970Z,62.30
2018-11-20T23:02:58.870Z,65.33
2018-11-20T23:05:46.217Z,54.83
2018-11-20T23:08:15.691Z,60.90
2018-11-20T23:10:44.930Z,67.63
2018-11-20T23:13:14.187Z,60.27
2018-11-20T23:15:43.577Z,69.73
2018-11-20T23:18:12.822Z,67.13
2018-11-20T23:20:42.089Z,60.77
2018-11-20T23:23:11.573Z,63.77
2018-11-20T23:25:40.817Z,54.63
2018-11-20T23:28:10.154Z,59.17
2018-11-20T23:30:41.559Z,60.33
2018-11-20T23:33:10.864Z,55.87
2018-11-20T23:35:40.262Z,51.50
2018-11-20T23:38:09.754Z,44.40
2018-11-20T23:40:38.980Z,60.20
2018-11-20T23:43:08.422Z,53.30
2018-11-20T23:45:37.965Z,50.63
2018-11-20T23:48:07.349Z,56.33
2018-11-20T23:50:36.622Z,58.27
2018-11-20T23:53:06.049Z,64.10
2018-11-20T23:55:35.280Z,58.50
2018-11-20T23:58:04.559Z,59.70
